createdAt,value
2022-08-19T00:02:14.461Z,100.00
2022-08-19T00:04:43.447Z,100.00
2022-08-19T00:07:12.309Z,100.00
2022-08-19T00:09:41.321Z,100.00
2022-08-19T00:12:10.400Z,100.00
2022-08-19T00:14:40.296Z,100.00
2022-08-19T00:17:10.537Z,100.00
2022-08-19T00:19:41.675Z,100.00
2022-08-19T00:22:11.003Z,100.00
2022-08-19T00:24:42.089Z,100.00
2022-08-19T00:27:25.795Z,100.00
2022-08-19T00:29:55.691Z,100.00
2022-08-19T00:32:24.739Z,100.00
2022-08-19T00:34:57.210Z,100.00
2022-08-19T00:37:27.790Z,100.00
2022-08-19T00:39:57.399Z,100.00
2022-08-19T00:42:29.396Z,100.00
2022-08-19T00:44:58.268Z,100.00
2022-08-19T00:47:27.109Z,100.00
2022-08-19T00:50:00.733Z,100.00
2022-08-19T00:52:34.383Z,100.00
2022-08-19T00:55:06.056Z,100.00
2022-08-19T00:57:42.449Z,100.00
2022-08-19T01:00:16.849Z,100.00
2022-08-19T01:02:46.175Z,100.00
2022-08-19T01:05:22.634Z,100.00
2022-08-19T01:07:53.044Z,100.00
2022-08-19T01:10:27.184Z,100.00
2022-08-19T01:12:58.095Z,100.00
2022-08-19T01:15:32.234Z,100.00
2022-08-19T01:18:12.022Z,100.00
2022-08-19T01:20:44.661Z,100.00
2022-08-19T01:23:16.188Z,100.00
2022-08-19T01:25:51.125Z,100.00
2022-08-19T01:28:33.593Z,100.00
2022-08-19T01:31:26.751Z,100.00
2022-08-19T01:34:00.187Z,100.00
2022-08-19T01:36:33.775Z,100.00
2022-08-19T01:39:15.031Z,100.00
2022-08-19T01:41:43.962Z,100.00
2022-08-19T01:44:17.774Z,100.00
2022-08-19T01:46:50.615Z,100.00
2022-08-19T01:49:23.934Z,100.00
2022-08-19T01:51:53.244Z,100.00
2022-08-19T01:54:27.440Z,100.00
2022-08-19T01:57:02.366Z,100.00
2022-08-19T01:59:32.382Z,100.00
2022-08-19T02:02:01.329Z,100.00
2022-08-19T02:04:30.014Z,100.00
2022-08-19T02:07:00.334Z,100.00
2022-08-19T02:09:30.789Z,100.00
2022-08-19T02:11:59.563Z,100.00
2022-08-19T02:14:28.224Z,100.00
2022-08-19T02:16:57.418Z,100.00
2022-08-19T02:19:26.020Z,100.00
2022-08-19T02:21:54.663Z,100.00
2022-08-19T02:24:23.309Z,100.00
2022-08-19T02:26:53.716Z,100.00
2022-08-19T02:29:23.197Z,100.00
2022-08-19T02:31:52.798Z,100.00
2022-08-19T02:34:21.403Z,100.00
2022-08-19T02:36:51.918Z,100.00
2022-08-19T02:39:20.499Z,100.00
2022-08-19T02:41:49.974Z,100.00
2022-08-19T02:44:30.827Z,100.00
2022-08-19T02:47:01.238Z,100.00
2022-08-19T02:49:29.985Z,100.00
2022-08-19T02:52:04.219Z,100.00
2022-08-19T02:54:33.179Z,100.00
2022-08-19T02:57:02.013Z,100.00
2022-08-19T02:59:34.553Z,100.00
2022-08-19T03:02:03.643Z,100.00
2022-08-19T03:04:32.274Z,100.00
2022-08-19T03:07:10.738Z,100.00
2022-08-19T03:09:40.195Z,100.00
2022-08-19T03:12:09.184Z,100.00
2022-08-19T03:14:40.014Z,100.00
2022-08-19T03:17:09.123Z,100.00
2022-08-19T03:19:38.993Z,100.00
2022-08-19T03:22:09.005Z,100.00
2022-08-19T03:24:37.912Z,100.00
2022-08-19T03:27:06.972Z,100.00
2022-08-19T03:29:42.998Z,100.00
2022-08-19T03:32:29.702Z,100.00
2022-08-19T03:35:03.411Z,100.00
2022-08-19T03:37:32.051Z,100.00
2022-08-19T03:40:00.754Z,100.00
2022-08-19T03:42:45.453Z,100.00
2022-08-19T03:45:20.615Z,100.00
2022-08-19T03:47:49.345Z,100.00
2022-08-19T03:50:18.919Z,100.00
2022-08-19T03:52:52.483Z,100.00
2022-08-19T03:58:31.597Z,100.00
2022-08-19T04:01:03.778Z,100.00
2022-08-19T04:03:47.307Z,100.00
2022-08-19T04:06:22.467Z,100.00
2022-08-19T04:08:54.972Z,100.00
2022-08-19T04:11:43.499Z,100.00
2022-08-19T04:14:16.579Z,100.00
2022-08-19T04:16:47.372Z,100.00
2022-08-19T04:19:18.006Z,100.00
2022-08-19T04:21:50.181Z,100.00
2022-08-19T04:24:19.597Z,100.00
2022-08-19T04:26:49.036Z,100.00
2022-08-19T04:29:23.262Z,100.00
2022-08-19T04:31:59.586Z,100.00
2022-08-19T04:34:31.473Z,100.00
2022-08-19T04:37:01.226Z,100.00
2022-08-19T04:39:46.407Z,100.00
2022-08-19T04:42:33.079Z,100.00
2022-08-19T04:45:03.990Z,100.00
2022-08-19T04:47:47.930Z,100.00
2022-08-19T04:50:24.076Z,100.00
2022-08-19T04:52:54.446Z,100.00
2022-08-19T04:55:24.146Z,100.00
2022-08-19T04:57:52.721Z,100.00
2022-08-19T05:00:21.399Z,100.00
2022-08-19T05:02:51.727Z,100.00
2022-08-19T05:05:20.844Z,100.00
2022-08-19T05:07:49.953Z,100.00
2022-08-19T05:10:18.948Z,100.00
2022-08-19T05:12:47.554Z,100.00
2022-08-19T05:15:16.639Z,100.00
2022-08-19T05:18:05.362Z,100.00
2022-08-19T05:20:52.831Z,100.00
2022-08-19T05:23:22.894Z,100.00
2022-08-19T05:25:52.742Z,100.00
2022-08-19T05:28:22.568Z,100.00
2022-08-19T05:30:52.336Z,100.00
2022-08-19T05:33:21.504Z,100.00
2022-08-19T05:35:52.057Z,100.00
2022-08-19T05:38:21.188Z,100.00
2022-08-19T05:40:50.424Z,100.00
2022-08-19T05:43:19.357Z,100.00
2022-08-19T05:45:48.298Z,100.00
2022-08-19T05:48:21.627Z,100.00
2022-08-19T05:50:51.972Z,100.00
2022-08-19T05:53:21.295Z,100.00
2022-08-19T05:55:49.888Z,100.00
2022-08-19T05:58:18.476Z,100.00
2022-08-19T06:00:52.602Z,100.00
2022-08-19T06:03:21.413Z,100.00
2022-08-19T06:05:52.225Z,100.00
2022-08-19T06:08:34.329Z,100.00
2022-08-19T06:11:22.083Z,100.00
2022-08-19T06:13:59.496Z,100.00
2022-08-19T06:16:29.433Z,100.00
2022-08-19T06:19:01.285Z,100.00
2022-08-19T06:21:32.426Z,100.00
2022-08-19T06:24:01.670Z,100.00
2022-08-19T06:26:30.588Z,100.00
2022-08-19T06:28:59.478Z,100.00
2022-08-19T06:31:32.372Z,100.00
2022-08-19T06:34:03.095Z,100.00
2022-08-19T06:36:37.250Z,100.00
2022-08-19T06:39:09.558Z,100.00
2022-08-19T06:41:47.139Z,100.00
2022-08-19T06:44:21.597Z,100.00
2022-08-19T06:46:53.647Z,100.00
2022-08-19T06:49:24.372Z,100.00
2022-08-19T06:51:54.472Z,100.00
2022-08-19T06:54:24.132Z,100.00
2022-08-19T06:57:03.017Z,100.00
2022-08-19T06:59:34.139Z,100.00
2022-08-19T07:02:07.616Z,100.00
2022-08-19T07:04:39.416Z,97.45
2022-08-19T07:07:20.982Z,94.78
2022-08-19T07:09:59.035Z,96.98
2022-08-19T07:12:31.057Z,98.97
2022-08-19T07:15:00.235Z,99.36
2022-08-19T07:17:31.923Z,100.00
2022-08-19T07:20:05.444Z,99.00
2022-08-19T07:22:40.355Z,100.00
2022-08-19T07:25:12.008Z,98.41
2022-08-19T07:27:41.306Z,99.70
2022-08-19T07:30:17.059Z,100.00
2022-08-19T07:32:46.088Z,100.00
2022-08-19T07:35:14.658Z,100.00
2022-08-19T07:37:45.321Z,100.00
2022-08-19T07:40:15.235Z,100.00
2022-08-19T07:42:44.545Z,100.00
2022-08-19T07:45:13.841Z,100.00
2022-08-19T07:47:49.837Z,100.00
2022-08-19T07:50:21.085Z,100.00
2022-08-19T07:52:52.817Z,100.00
2022-08-19T07:55:40.525Z,100.00
2022-08-19T07:58:13.109Z,100.00
2022-08-19T08:00:42.785Z,100.00
2022-08-19T08:03:12.099Z,100.00
2022-08-19T08:05:58.754Z,100.00
2022-08-19T08:08:48.441Z,100.00
2022-08-19T08:11:20.053Z,100.00
2022-08-19T08:14:00.800Z,100.00
2022-08-19T08:16:32.469Z,100.00
2022-08-19T08:19:02.438Z,100.00
2022-08-19T08:21:36.727Z,100.00
2022-08-19T08:24:07.215Z,100.00
2022-08-19T08:26:35.976Z,100.00
2022-08-19T08:29:12.288Z,100.00
2022-08-19T08:31:43.464Z,100.00
2022-08-19T08:34:14.634Z,100.00
2022-08-19T08:36:47.450Z,100.00
2022-08-19T08:39:21.601Z,100.00
2022-08-19T08:42:17.664Z,100.00
2022-08-19T08:45:00.425Z,100.00
2022-08-19T08:47:42.790Z,100.00
2022-08-19T08:50:20.707Z,100.00
2022-08-19T08:52:54.634Z,100.00
2022-08-19T08:55:36.969Z,100.00
2022-08-19T08:58:15.011Z,100.00
2022-08-19T09:00:48.217Z,100.00
2022-08-19T09:03:23.192Z,100.00
2022-08-19T09:06:03.190Z,99.03
2022-08-19T09:08:49.685Z,96.74
2022-08-19T09:11:42.424Z,97.66
2022-08-19T09:14:49.816Z,94.34
2022-08-19T09:17:29.201Z,94.95
2022-08-19T09:20:05.641Z,90.34
2022-08-19T09:22:34.729Z,91.11
2022-08-19T09:25:04.261Z,89.91
2022-08-19T09:27:42.423Z,88.68
2022-08-19T09:30:17.558Z,85.01
2022-08-19T09:32:47.251Z,86.94
2022-08-19T09:35:23.728Z,88.55
2022-08-19T09:37:57.815Z,89.03
2022-08-19T09:40:30.082Z,89.06
2022-08-19T09:43:12.905Z,90.13
2022-08-19T09:45:42.499Z,90.38
2022-08-19T09:48:11.907Z,90.59
2022-08-19T09:50:51.653Z,91.14
2022-08-19T09:53:25.419Z,91.44
2022-08-19T09:55:56.752Z,91.45
2022-08-19T09:58:28.879Z,90.99
2022-08-19T10:00:57.846Z,92.20
2022-08-19T10:03:29.960Z,93.09
2022-08-19T10:06:01.169Z,93.71
2022-08-19T10:08:35.441Z,93.96
2022-08-19T10:11:28.449Z,93.27
2022-08-19T10:13:56.937Z,93.34
2022-08-19T10:16:30.332Z,94.09
2022-08-19T10:19:00.289Z,93.97
2022-08-19T10:21:35.361Z,93.60
2022-08-19T10:24:09.421Z,93.07
2022-08-19T10:26:43.041Z,93.47
2022-08-19T10:29:13.584Z,92.06
2022-08-19T10:32:03.143Z,92.79
2022-08-19T10:34:32.999Z,92.27
2022-08-19T10:37:02.521Z,90.20
2022-08-19T10:39:42.989Z,90.11
2022-08-19T10:42:14.425Z,92.38
2022-08-19T10:44:44.875Z,93.54
2022-08-19T10:47:17.631Z,91.74
2022-08-19T10:50:13.158Z,91.43
2022-08-19T10:52:49.716Z,91.47
2022-08-19T10:55:39.211Z,92.67
2022-08-19T10:58:14.317Z,93.98
2022-08-19T11:00:45.172Z,94.16
2022-08-19T11:03:14.303Z,94.42
2022-08-19T11:05:43.003Z,93.42
2022-08-19T11:08:23.323Z,93.13
2022-08-19T11:10:59.169Z,93.58
2022-08-19T11:13:28.235Z,93.46
2022-08-19T11:16:07.660Z,91.69
2022-08-19T11:18:41.877Z,91.07
2022-08-19T11:21:18.015Z,90.29
2022-08-19T11:23:48.749Z,89.22
2022-08-19T11:26:19.231Z,90.22
2022-08-19T11:28:48.832Z,90.48
2022-08-19T11:31:22.753Z,91.20
2022-08-19T11:33:54.852Z,91.50
2022-08-19T11:36:25.159Z,91.60
2022-08-19T11:38:54.505Z,92.64
2022-08-19T11:41:25.679Z,93.50
2022-08-19T11:43:56.090Z,93.61
2022-08-19T11:46:30.493Z,93.81
2022-08-19T11:49:00.094Z,94.61
2022-08-19T11:51:29.922Z,94.61
2022-08-19T11:54:01.529Z,95.03
2022-08-19T11:56:30.648Z,95.31
2022-08-19T11:59:00.136Z,95.43
2022-08-19T12:01:30.683Z,95.17
2022-08-19T12:04:00.097Z,94.76
2022-08-19T12:06:35.109Z,94.70
2022-08-19T12:09:08.393Z,94.49
2022-08-19T12:11:37.960Z,94.54
2022-08-19T12:14:07.237Z,94.56
2022-08-19T12:16:42.253Z,95.47
2022-08-19T12:19:21.734Z,96.43
2022-08-19T12:21:52.364Z,96.52
2022-08-19T12:24:24.334Z,96.95
2022-08-19T12:26:54.511Z,97.48
2022-08-19T12:29:30.753Z,97.97
2022-08-19T12:32:03.855Z,98.17
2022-08-19T12:34:34.404Z,98.93
2022-08-19T12:37:07.155Z,99.75
2022-08-19T12:39:42.470Z,99.48
2022-08-19T12:42:12.816Z,99.34
2022-08-19T12:44:44.052Z,98.72
2022-08-19T12:47:19.645Z,99.37
2022-08-19T12:49:54.713Z,99.51
2022-08-19T12:52:26.282Z,99.42
2022-08-19T12:55:03.314Z,100.00
2022-08-19T12:57:34.231Z,100.00
2022-08-19T13:00:10.378Z,100.00
2022-08-19T13:02:41.796Z,100.00
2022-08-19T13:05:13.789Z,100.00
2022-08-19T13:07:44.970Z,100.00
2022-08-19T13:10:18.502Z,100.00
2022-08-19T13:12:50.279Z,100.00
2022-08-19T13:15:24.086Z,98.93
2022-08-19T13:17:57.127Z,94.95
2022-08-19T13:20:28.015Z,92.59
2022-08-19T13:22:58.323Z,91.66
2022-08-19T13:25:27.678Z,89.39
2022-08-19T13:27:57.097Z,88.93
2022-08-19T13:30:43.565Z,88.60
2022-08-19T13:33:16.153Z,87.10
2022-08-19T13:35:50.521Z,87.90
2022-08-19T13:38:24.055Z,87.23
2022-08-19T13:40:55.312Z,86.42
2022-08-19T13:43:28.741Z,86.91
2022-08-19T13:45:58.296Z,84.67
2022-08-19T13:48:29.169Z,84.59
2022-08-19T13:51:19.410Z,84.26
2022-08-19T13:53:48.402Z,88.56
2022-08-19T13:56:25.421Z,91.13
2022-08-19T13:58:55.540Z,93.66
2022-08-19T14:01:29.175Z,94.29
2022-08-19T14:04:00.164Z,95.31
2022-08-19T14:06:29.980Z,95.46
2022-08-19T14:08:58.744Z,94.75
2022-08-19T14:11:28.446Z,94.19
2022-08-19T14:13:57.181Z,94.83
2022-08-19T14:16:31.936Z,94.25
2022-08-19T14:19:06.288Z,94.63
2022-08-19T14:22:06.357Z,94.38
2022-08-19T14:24:35.727Z,96.66
2022-08-19T14:27:04.854Z,99.14
2022-08-19T14:29:34.390Z,100.00
2022-08-19T14:32:03.699Z,100.00
2022-08-19T14:34:34.882Z,100.00
2022-08-19T14:37:03.914Z,100.00
2022-08-19T14:39:32.993Z,100.00
2022-08-19T14:42:02.603Z,100.00
2022-08-19T14:44:34.878Z,100.00
2022-08-19T14:47:04.298Z,100.00
2022-08-19T14:49:34.975Z,100.00
2022-08-19T14:52:10.762Z,100.00
2022-08-19T14:54:42.064Z,100.00
2022-08-19T14:57:16.081Z,100.00
2022-08-19T14:59:45.309Z,100.00
2022-08-19T15:02:33.824Z,100.00
2022-08-19T15:05:04.963Z,100.00
2022-08-19T15:07:33.869Z,100.00
2022-08-19T15:10:02.733Z,100.00
2022-08-19T15:12:31.510Z,100.00
2022-08-19T15:15:00.390Z,100.00
2022-08-19T15:17:43.475Z,100.00
2022-08-19T15:20:19.927Z,100.00
2022-08-19T15:22:49.362Z,100.00
2022-08-19T15:25:21.321Z,100.00
2022-08-19T15:27:51.285Z,100.00
2022-08-19T15:30:25.020Z,100.00
2022-08-19T15:32:55.828Z,100.00
2022-08-19T15:35:26.563Z,100.00
2022-08-19T15:37:56.627Z,100.00
2022-08-19T15:40:28.187Z,100.00
2022-08-19T15:42:58.863Z,100.00
2022-08-19T15:45:32.920Z,100.00
2022-08-19T15:48:02.940Z,100.00
2022-08-19T15:50:33.620Z,100.00
2022-08-19T15:53:05.028Z,100.00
2022-08-19T15:55:38.221Z,100.00
2022-08-19T15:58:44.861Z,100.00
2022-08-19T16:01:42.685Z,100.00
2022-08-19T16:04:29.917Z,100.00
2022-08-19T16:07:03.501Z,100.00
2022-08-19T16:09:34.916Z,100.00
2022-08-19T16:12:07.037Z,100.00
2022-08-19T16:14:38.216Z,100.00
2022-08-19T16:17:07.110Z,100.00
2022-08-19T16:19:35.703Z,100.00
2022-08-19T16:22:07.190Z,100.00
2022-08-19T16:24:35.882Z,100.00
2022-08-19T16:27:05.257Z,100.00
2022-08-19T16:29:39.348Z,100.00
2022-08-19T16:32:12.707Z,100.00
2022-08-19T16:34:42.646Z,100.00
2022-08-19T16:37:13.046Z,100.00
2022-08-19T16:39:43.754Z,100.00
2022-08-19T16:42:14.104Z,100.00
2022-08-19T16:44:46.609Z,100.00
2022-08-19T16:47:17.105Z,100.00
2022-08-19T16:49:54.644Z,100.00
2022-08-19T16:52:26.372Z,100.00
2022-08-19T16:54:55.836Z,100.00
2022-08-19T16:57:25.047Z,100.00
2022-08-19T16:59:53.970Z,100.00
2022-08-19T17:02:25.597Z,100.00
2022-08-19T17:04:59.284Z,100.00
2022-08-19T17:07:33.167Z,100.00
2022-08-19T17:10:04.031Z,100.00
2022-08-19T17:12:32.717Z,100.00
2022-08-19T17:15:03.416Z,100.00
2022-08-19T17:17:33.186Z,100.00
2022-08-19T17:20:03.474Z,100.00
2022-08-19T17:22:35.815Z,100.00
2022-08-19T17:25:05.787Z,100.00
2022-08-19T17:27:34.699Z,100.00
2022-08-19T17:30:03.904Z,100.00
2022-08-19T17:32:35.024Z,100.00
2022-08-19T17:35:04.838Z,100.00
2022-08-19T17:37:37.270Z,100.00
2022-08-19T17:40:09.329Z,100.00
2022-08-19T17:42:38.629Z,100.00
2022-08-19T17:45:11.476Z,100.00
2022-08-19T17:47:41.797Z,100.00
2022-08-19T17:50:13.176Z,100.00
2022-08-19T17:52:44.097Z,100.00
2022-08-19T17:55:13.170Z,100.00
2022-08-19T17:57:46.529Z,100.00
2022-08-19T18:00:18.473Z,100.00
2022-08-19T18:02:50.612Z,100.00
2022-08-19T18:05:23.646Z,100.00
2022-08-19T18:07:55.071Z,100.00
2022-08-19T18:10:32.054Z,100.00
2022-08-19T18:13:17.749Z,100.00
2022-08-19T18:15:47.479Z,100.00
2022-08-19T18:18:16.353Z,100.00
2022-08-19T18:20:46.209Z,100.00
2022-08-19T18:23:44.598Z,100.00
2022-08-19T18:26:05.838Z,100.00
2022-08-19T18:28:35.123Z,100.00
2022-08-19T18:31:04.785Z,100.00
2022-08-19T18:33:34.559Z,100.00
2022-08-19T18:36:13.387Z,100.00
2022-08-19T18:39:06.380Z,100.00
2022-08-19T18:41:54.395Z,100.00
2022-08-19T18:44:40.552Z,100.00
2022-08-19T18:47:26.774Z,100.00
2022-08-19T18:49:55.690Z,100.00
2022-08-19T18:52:27.266Z,100.00
2022-08-19T18:54:59.454Z,100.00
2022-08-19T18:57:28.193Z,100.00
2022-08-19T18:59:57.775Z,100.00
2022-08-19T19:02:27.746Z,100.00
2022-08-19T19:04:56.391Z,100.00
2022-08-19T19:07:29.473Z,100.00
2022-08-19T19:09:59.439Z,100.00
2022-08-19T19:12:29.734Z,100.00
2022-08-19T19:14:58.831Z,100.00
2022-08-19T19:17:28.417Z,100.00
2022-08-19T19:19:57.177Z,100.00
2022-08-19T19:22:26.334Z,100.00
2022-08-19T19:24:55.589Z,100.00
2022-08-19T19:27:26.666Z,100.00
2022-08-19T19:29:55.811Z,100.00
2022-08-19T19:32:29.475Z,100.00
2022-08-19T19:34:59.616Z,100.00
2022-08-19T19:37:28.609Z,100.00
2022-08-19T19:39:57.455Z,100.00
2022-08-19T19:42:27.870Z,100.00
2022-08-19T19:44:57.538Z,100.00
2022-08-19T19:47:30.449Z,100.00
2022-08-19T19:50:16.021Z,100.00
2022-08-19T19:52:47.038Z,100.00
2022-08-19T19:55:18.990Z,100.00
2022-08-19T19:57:50.086Z,100.00
2022-08-19T20:00:20.883Z,100.00
2022-08-19T20:02:53.586Z,100.00
2022-08-19T20:05:24.054Z,100.00
2022-08-19T20:08:25.627Z,100.00
2022-08-19T20:10:54.442Z,100.00
2022-08-19T20:13:24.783Z,100.00
2022-08-19T20:15:53.825Z,100.00
2022-08-19T20:18:22.535Z,100.00
2022-08-19T20:20:51.954Z,100.00
2022-08-19T20:23:23.874Z,100.00
2022-08-19T20:25:52.853Z,100.00
2022-08-19T20:28:23.137Z,100.00
2022-08-19T20:30:53.362Z,100.00
2022-08-19T20:33:22.248Z,100.00
2022-08-19T20:35:51.067Z,100.00
2022-08-19T20:38:19.958Z,100.00
2022-08-19T20:40:48.688Z,100.00
2022-08-19T20:43:17.553Z,100.00
2022-08-19T20:45:47.158Z,100.00
2022-08-19T20:48:17.177Z,100.00
2022-08-19T20:50:46.132Z,100.00
2022-08-19T20:53:17.394Z,100.00
2022-08-19T20:55:49.292Z,100.00
2022-08-19T20:58:21.269Z,100.00
2022-08-19T21:00:51.694Z,100.00
2022-08-19T21:03:28.962Z,100.00
2022-08-19T21:05:58.922Z,100.00
2022-08-19T21:08:28.784Z,100.00
2022-08-19T21:11:20.751Z,100.00
2022-08-19T21:13:49.734Z,100.00
2022-08-19T21:16:18.462Z,100.00
2022-08-19T21:18:49.025Z,100.00
2022-08-19T21:21:18.035Z,100.00
2022-08-19T21:23:46.907Z,100.00
2022-08-19T21:26:15.814Z,100.00
2022-08-19T21:28:44.381Z,100.00
2022-08-19T21:31:15.195Z,100.00
2022-08-19T21:33:44.145Z,100.00
2022-08-19T21:36:14.087Z,100.00
2022-08-19T21:38:42.699Z,100.00
2022-08-19T21:41:12.128Z,100.00
2022-08-19T21:43:41.657Z,100.00
2022-08-19T21:46:10.727Z,100.00
2022-08-19T21:48:39.856Z,100.00
2022-08-19T21:51:08.971Z,100.00
2022-08-19T21:53:39.298Z,100.00
2022-08-19T21:56:09.062Z,100.00
2022-08-19T21:58:38.361Z,100.00
2022-08-19T22:01:08.264Z,100.00
2022-08-19T22:03:38.948Z,100.00
2022-08-19T22:06:08.491Z,100.00
2022-08-19T22:08:38.975Z,100.00
2022-08-19T22:11:07.595Z,100.00
2022-08-19T22:13:39.926Z,100.00
2022-08-19T22:16:10.701Z,100.00
2022-08-19T22:18:44.432Z,100.00
2022-08-19T22:21:13.546Z,100.00
2022-08-19T22:23:44.614Z,100.00
2022-08-19T22:26:14.523Z,100.00
2022-08-19T22:28:44.445Z,100.00
2022-08-19T22:31:13.996Z,100.00
2022-08-19T22:33:43.781Z,100.00
2022-08-19T22:36:12.738Z,100.00
2022-08-19T22:38:43.911Z,100.00
2022-08-19T22:41:12.820Z,100.00
2022-08-19T22:43:41.670Z,100.00
2022-08-19T22:46:15.093Z,100.00
2022-08-19T22:48:47.884Z,100.00
2022-08-19T22:51:42.333Z,100.00
2022-08-19T22:54:12.630Z,100.00
2022-08-19T22:56:41.543Z,100.00
2022-08-19T22:59:10.855Z,100.00
2022-08-19T23:01:41.860Z,100.00
2022-08-19T23:04:10.580Z,100.00
2022-08-19T23:06:41.998Z,100.00
2022-08-19T23:09:16.761Z,100.00
2022-08-19T23:11:46.481Z,100.00
2022-08-19T23:14:17.681Z,100.00
2022-08-19T23:16:50.983Z,100.00
2022-08-19T23:19:21.460Z,100.00
2022-08-19T23:21:52.685Z,100.00
2022-08-19T23:24:22.923Z,100.00
2022-08-19T23:27:09.613Z,100.00
2022-08-19T23:29:55.712Z,100.00
2022-08-19T23:32:25.552Z,100.00
2022-08-19T23:34:57.221Z,100.00
2022-08-19T23:37:28.359Z,100.00
2022-08-19T23:39:58.485Z,100.00
2022-08-19T23:42:27.376Z,100.00
2022-08-19T23:45:03.915Z,100.00
2022-08-19T23:47:34.445Z,100.00
2022-08-19T23:50:06.410Z,100.00
2022-08-19T23:52:43.052Z,100.00
2022-08-19T23:55:14.395Z,100.00
2022-08-19T23:57:43.037Z,100.00
